»·PEaware :: N4371R L52-L88

N4371R :: L52-L88

FLIGHT INFORMATION

Flight Status: Arrived
Operator: Privately registered:
United States
More flights under this callsign
Pilot: Matthew S. (25832)
Aircraft: CESSNA 172 SKYHAWK
(C172)
More flights by this aircraft type
Origin: L52 Oceano Co
United States
Destination: L88 New Cuyama
United States
More flights between these airports :: More routes between these airports
Route:
File this flight plan on PilotEdge
Remarks:
Altitude:
(Current/Filed)
6,000ft
Speed:
(Current/Filed)
115kts
Departed: 11-Aug-19 02:31 PM
Arrived: 11-Aug-19 03:05 PM
Distance/Time
Traveled:
47nm/0:34
Distance/Time
To Go:
Arrived

Flight Plot

Page will automatically refresh every two minutes.


Map Options




Map Legend


Flown Route
Filed Route
Departure Airport
Arrival Airport
Navaid (VOR, NDB)
Fix

Horizontal Profiles

Position Reports

Time Latitude Longitude Heading Altitude Ground
Speed
11-Aug-19 14:13 35.103552 -120.624284 214 15ft 0kts
11-Aug-19 14:15 35.103552 -120.624284 214 15ft 0kts
11-Aug-19 14:16 35.103552 -120.624284 214 15ft 0kts
11-Aug-19 14:18 35.103549 -120.624286 213 15ft 0kts
11-Aug-19 14:19 35.103549 -120.624286 213 15ft 0kts
11-Aug-19 14:20 35.103549 -120.624286 213 15ft 0kts
11-Aug-19 14:21 35.103549 -120.624286 213 15ft 0kts
11-Aug-19 14:22 35.103549 -120.624286 213 15ft 0kts
11-Aug-19 14:23 35.103549 -120.624286 213 15ft 0kts
11-Aug-19 14:24 35.102913 -120.623884 124 16ft 10kts
11-Aug-19 14:25 35.101891 -120.622068 226 17ft 0kts
11-Aug-19 14:26 35.101888 -120.622072 227 17ft 0kts
11-Aug-19 14:27 35.101888 -120.622072 227 17ft 0kts
11-Aug-19 14:28 35.100424 -120.621136 123 17ft 14kts
11-Aug-19 14:29 35.099546 -120.619363 56 17ft 0kts
11-Aug-19 14:30 35.099933 -120.619275 303 17ft 0kts
11-Aug-19 14:31 35.104637 -120.628523 299 218ft 73kts
11-Aug-19 14:32 35.111697 -120.631648 116 969ft 74kts
11-Aug-19 14:33 35.105173 -120.607484 101 1732ft 74kts
11-Aug-19 14:34 35.100764 -120.583005 106 2475ft 70kts
11-Aug-19 14:35 35.094657 -120.557532 103 3102ft 79kts
11-Aug-19 14:36 35.089143 -120.531163 106 3760ft 79kts
11-Aug-19 14:36 35.085018 -120.509265 101 4264ft 81kts
11-Aug-19 14:38 35.078943 -120.477722 96 4915ft 86kts
11-Aug-19 14:39 35.073159 -120.443103 102 4984ft 113kts
11-Aug-19 14:40 35.066241 -120.405324 100 4952ft 113kts
11-Aug-19 14:40 35.060954 -120.373931 99 4949ft 111kts
11-Aug-19 14:41 35.060225 -120.336548 79 4949ft 110kts
11-Aug-19 14:43 35.065992 -120.293185 82 4969ft 110kts
11-Aug-19 14:43 35.069226 -120.261981 81 4980ft 110kts
11-Aug-19 14:44 35.072430 -120.224598 84 5025ft 110kts
11-Aug-19 14:45 35.074332 -120.186853 87 5041ft 112kts
11-Aug-19 14:46 35.074199 -120.148729 91 5066ft 112kts
11-Aug-19 14:47 35.072906 -120.110651 92 5085ft 111kts
11-Aug-19 14:48 35.068152 -120.073135 113 5089ft 111kts
11-Aug-19 14:49 35.055036 -120.039445 115 4885ft 111kts
11-Aug-19 14:50 35.042565 -120.004411 118 4215ft 111kts
11-Aug-19 14:51 35.027780 -119.970940 108 3894ft 113kts
11-Aug-19 14:52 35.016068 -119.934743 114 3850ft 115kts
11-Aug-19 14:53 35.002483 -119.899368 114 3758ft 117kts
11-Aug-19 14:54 34.989953 -119.862927 112 3598ft 115kts
11-Aug-19 14:55 34.977655 -119.826755 114 3561ft 111kts
11-Aug-19 14:56 34.965077 -119.793497 115 3708ft 106kts
11-Aug-19 14:57 34.952167 -119.760386 120 3750ft 108kts
11-Aug-19 14:58 34.936183 -119.728762 129 3677ft 109kts
11-Aug-19 14:59 34.917910 -119.698950 126 3620ft 109kts
11-Aug-19 15:00 34.904770 -119.674575 123 3388ft 73kts
11-Aug-19 15:01 34.908501 -119.652524 46 3371ft 72kts
11-Aug-19 15:02 34.926416 -119.656353 315 3166ft 72kts
11-Aug-19 15:03 34.935418 -119.674443 296 2393ft 58kts
11-Aug-19 15:04 34.940787 -119.687679 296 2167ft 29kts
11-Aug-19 15:05 34.942856 -119.690347 126 2156ft 2kts
11-Aug-19 15:06 34.942643 -119.690458 208 2156ft 0kts
11-Aug-19 15:07 34.942643 -119.690458 208 2156ft 0kts

Navigation Log

Ident Type
Flight plan parsing failed, navigation log unavailable